sensor_id;sensor_type;location;lat;lon;timestamp;pressure;altitude;pressure_sealevel;temperature;humidity
9462;BME280;4769;42.660;23.262;2024-01-30T00:01:52;95891.00;;;2.47;66.55
9462;BME280;4769;42.660;23.262;2024-01-30T00:04:21;95892.13;;;2.44;66.64
9462;BME280;4769;42.660;23.262;2024-01-30T00:06:47;95897.19;;;2.46;66.25
9462;BME280;4769;42.660;23.262;2024-01-30T00:09:12;95898.31;;;2.43;66.51
9462;BME280;4769;42.660;23.262;2024-01-30T00:11:38;95889.13;;;2.22;66.42
9462;BME280;4769;42.660;23.262;2024-01-30T00:14:04;95895.97;;;2.23;66.64
9462;BME280;4769;42.660;23.262;2024-01-30T00:16:30;95897.47;;;2.25;66.60
9462;BME280;4769;42.660;23.262;2024-01-30T00:18:55;95896.09;;;2.21;66.48
9462;BME280;4769;42.660;23.262;2024-01-30T00:21:21;95904.88;;;2.20;66.21
9462;BME280;4769;42.660;23.262;2024-01-30T00:23:47;95903.91;;;2.21;66.53
9462;BME280;4769;42.660;23.262;2024-01-30T00:26:13;95904.06;;;2.20;66.33
9462;BME280;4769;42.660;23.262;2024-01-30T00:28:42;95902.56;;;2.17;65.95
9462;BME280;4769;42.660;23.262;2024-01-30T00:31:08;95894.53;;;2.11;66.80
9462;BME280;4769;42.660;23.262;2024-01-30T00:33:38;95893.13;;;2.16;67.02
9462;BME280;4769;42.660;23.262;2024-01-30T00:36:03;95895.00;;;2.24;66.40
9462;BME280;4769;42.660;23.262;2024-01-30T00:38:30;95896.16;;;2.12;66.63
9462;BME280;4769;42.660;23.262;2024-01-30T00:40:55;95896.56;;;2.17;66.46
9462;BME280;4769;42.660;23.262;2024-01-30T00:43:21;95896.25;;;1.93;67.69
9462;BME280;4769;42.660;23.262;2024-01-30T00:45:46;95891.59;;;1.96;67.69
9462;BME280;4769;42.660;23.262;2024-01-30T00:48:12;95897.34;;;2.00;67.34
9462;BME280;4769;42.660;23.262;2024-01-30T00:50:37;95891.84;;;2.03;66.98
9462;BME280;4769;42.660;23.262;2024-01-30T00:53:02;95892.22;;;2.08;67.54
9462;BME280;4769;42.660;23.262;2024-01-30T00:55:28;95883.22;;;2.02;66.71
9462;BME280;4769;42.660;23.262;2024-01-30T00:57:53;95887.03;;;2.08;67.33
9462;BME280;4769;42.660;23.262;2024-01-30T01:00:19;95890.53;;;2.16;66.62
9462;BME280;4769;42.660;23.262;2024-01-30T01:02:46;95888.44;;;2.20;67.40
9462;BME280;4769;42.660;23.262;2024-01-30T01:05:11;95887.47;;;2.21;67.19
9462;BME280;4769;42.660;23.262;2024-01-30T01:07:37;95888.97;;;2.23;67.50
9462;BME280;4769;42.660;23.262;2024-01-30T01:10:02;95890.75;;;2.23;67.61
9462;BME280;4769;42.660;23.262;2024-01-30T01:12:29;95887.94;;;2.34;66.88
9462;BME280;4769;42.660;23.262;2024-01-30T01:14:54;95879.47;;;2.32;67.45
9462;BME280;4769;42.660;23.262;2024-01-30T01:17:19;95880.00;;;2.35;67.16
9462;BME280;4769;42.660;23.262;2024-01-30T01:19:45;95880.22;;;2.24;67.61
9462;BME280;4769;42.660;23.262;2024-01-30T01:22:10;95891.00;;;2.29;67.45
9462;BME280;4769;42.660;23.262;2024-01-30T01:24:36;95887.19;;;2.24;67.64
9462;BME280;4769;42.660;23.262;2024-01-30T01:27:02;95886.34;;;2.23;67.04
9462;BME280;4769;42.660;23.262;2024-01-30T01:29:27;95885.56;;;2.23;67.45
9462;BME280;4769;42.660;23.262;2024-01-30T01:31:56;95886.81;;;2.19;67.52
9462;BME280;4769;42.660;23.262;2024-01-30T01:34:24;95884.50;;;2.16;67.55
9462;BME280;4769;42.660;23.262;2024-01-30T01:36:50;95882.84;;;1.97;67.43
9462;BME280;4769;42.660;23.262;2024-01-30T01:39:17;95887.31;;;2.05;67.40
9462;BME280;4769;42.660;23.262;2024-01-30T01:41:42;95886.72;;;2.11;67.66
9462;BME280;4769;42.660;23.262;2024-01-30T01:44:08;95891.13;;;2.28;66.95
9462;BME280;4769;42.660;23.262;2024-01-30T01:46:34;95889.28;;;2.20;66.48
9462;BME280;4769;42.660;23.262;2024-01-30T01:49:02;95887.03;;;2.25;66.07
9462;BME280;4769;42.660;23.262;2024-01-30T01:51:29;95886.22;;;1.98;65.33
9462;BME280;4769;42.660;23.262;2024-01-30T01:53:57;95886.66;;;2.03;66.47
9462;BME280;4769;42.660;23.262;2024-01-30T01:56:23;95891.91;;;2.11;66.02
9462;BME280;4769;42.660;23.262;2024-01-30T01:58:49;95886.16;;;2.17;65.39
9462;BME280;4769;42.660;23.262;2024-01-30T02:01:16;95888.91;;;2.15;66.19
9462;BME280;4769;42.660;23.262;2024-01-30T02:03:44;95893.13;;;2.16;65.88
9462;BME280;4769;42.660;23.262;2024-01-30T02:06:10;95894.63;;;2.19;66.04
9462;BME280;4769;42.660;23.262;2024-01-30T02:08:37;95901.75;;;2.17;66.38
9462;BME280;4769;42.660;23.262;2024-01-30T02:11:03;95893.88;;;2.09;66.13
9462;BME280;4769;42.660;23.262;2024-01-30T02:13:28;95899.72;;;2.11;66.96
9462;BME280;4769;42.660;23.262;2024-01-30T02:15:54;95894.75;;;2.17;66.53
9462;BME280;4769;42.660;23.262;2024-01-30T02:18:21;95896.56;;;2.17;66.72
9462;BME280;4769;42.660;23.262;2024-01-30T02:20:50;95896.56;;;2.17;66.36
9462;BME280;4769;42.660;23.262;2024-01-30T02:23:19;95896.94;;;2.22;66.94
9462;BME280;4769;42.660;23.262;2024-01-30T02:25:45;95893.28;;;2.32;66.12
9462;BME280;4769;42.660;23.262;2024-01-30T02:28:14;95889.19;;;2.30;66.19
9462;BME280;4769;42.660;23.262;2024-01-30T02:30:40;95887.72;;;2.27;66.57
9462;BME280;4769;42.660;23.262;2024-01-30T02:33:06;95884.69;;;2.32;66.43
9462;BME280;4769;42.660;23.262;2024-01-30T02:35:32;95886.03;;;2.36;65.72
9462;BME280;4769;42.660;23.262;2024-01-30T02:37:58;95886.97;;;2.35;65.73
9462;BME280;4769;42.660;23.262;2024-01-30T02:40:24;95883.94;;;2.22;65.56
9462;BME280;4769;42.660;23.262;2024-01-30T02:42:49;95892.22;;;2.08;66.03
9462;BME280;4769;42.660;23.262;2024-01-30T02:45:15;95891.75;;;2.22;65.75
9462;BME280;4769;42.660;23.262;2024-01-30T02:47:40;95886.91;;;2.27;66.06
9462;BME280;4769;42.660;23.262;2024-01-30T02:50:06;95885.03;;;2.19;66.22
9462;BME280;4769;42.660;23.262;2024-01-30T02:52:31;95885.03;;;2.19;66.20
9462;BME280;4769;42.660;23.262;2024-01-30T02:54:57;95885.38;;;2.07;66.78
9462;BME280;4769;42.660;23.262;2024-01-30T02:57:22;95886.97;;;1.90;67.17
9462;BME280;4769;42.660;23.262;2024-01-30T02:59:48;95888.06;;;1.88;67.72
9462;BME280;4769;42.660;23.262;2024-01-30T03:02:13;95894.59;;;2.01;67.53
9462;BME280;4769;42.660;23.262;2024-01-30T03:04:41;95887.59;;;2.02;67.07
9462;BME280;4769;42.660;23.262;2024-01-30T03:07:07;95884.50;;;1.62;67.25
9462;BME280;4769;42.660;23.262;2024-01-30T03:09:32;95882.56;;;1.64;66.93
9462;BME280;4769;42.660;23.262;2024-01-30T03:11:58;95878.06;;;1.66;67.09
9462;BME280;4769;42.660;23.262;2024-01-30T03:14:23;95883.06;;;1.77;66.67
9462;BME280;4769;42.660;23.262;2024-01-30T03:16:49;95881.72;;;1.73;66.62
9462;BME280;4769;42.660;23.262;2024-01-30T03:19:14;95874.28;;;1.87;66.81
9462;BME280;4769;42.660;23.262;2024-01-30T03:21:39;95879.50;;;2.05;65.99
9462;BME280;4769;42.660;23.262;2024-01-30T03:24:05;95875.56;;;2.01;65.33
9462;BME280;4769;42.660;23.262;2024-01-30T03:26:31;95882.69;;;1.99;65.54
9462;BME280;4769;42.660;23.262;2024-01-30T03:28:56;95882.13;;;1.95;65.35
9462;BME280;4769;42.660;23.262;2024-01-30T03:31:22;95882.84;;;1.97;65.79
9462;BME280;4769;42.660;23.262;2024-01-30T03:33:47;95879.13;;;2.00;65.48
9462;BME280;4769;42.660;23.262;2024-01-30T03:36:13;95868.34;;;1.95;64.68
9462;BME280;4769;42.660;23.262;2024-01-30T03:38:38;95869.75;;;2.07;64.20
9462;BME280;4769;42.660;23.262;2024-01-30T03:41:07;95869.75;;;2.07;64.22
9462;BME280;4769;42.660;23.262;2024-01-30T03:43:34;95874.03;;;2.08;64.35
9462;BME280;4769;42.660;23.262;2024-01-30T03:46:01;95872.53;;;1.78;64.71
9462;BME280;4769;42.660;23.262;2024-01-30T03:48:26;95871.22;;;1.92;64.76
9462;BME280;4769;42.660;23.262;2024-01-30T03:50:52;95867.38;;;1.96;64.16
9462;BME280;4769;42.660;23.262;2024-01-30T03:53:17;95869.00;;;1.97;64.17
9462;BME280;4769;42.660;23.262;2024-01-30T03:55:42;95861.72;;;2.00;63.96
9462;BME280;4769;42.660;23.262;2024-01-30T03:58:08;95870.56;;;1.90;63.96
9462;BME280;4769;42.660;23.262;2024-01-30T04:00:34;95859.78;;;1.85;63.77
9462;BME280;4769;42.660;23.262;2024-01-30T04:02:59;95857.59;;;1.80;63.50
9462;BME280;4769;42.660;23.262;2024-01-30T04:05:25;95860.16;;;1.63;63.51
9462;BME280;4769;42.660;23.262;2024-01-30T04:07:50;95862.84;;;1.71;64.38
9462;BME280;4769;42.660;23.262;2024-01-30T04:10:16;95864.03;;;1.76;63.65
9462;BME280;4769;42.660;23.262;2024-01-30T04:12:41;95856.19;;;1.86;63.01
9462;BME280;4769;42.660;23.262;2024-01-30T04:15:07;95860.06;;;1.82;62.93
9462;BME280;4769;42.660;23.262;2024-01-30T04:17:33;95859.16;;;1.73;62.71
9462;BME280;4769;42.660;23.262;2024-01-30T04:19:58;95862.69;;;1.72;63.03
9462;BME280;4769;42.660;23.262;2024-01-30T04:22:24;95859.53;;;1.78;62.63
9462;BME280;4769;42.660;23.262;2024-01-30T04:24:49;95862.91;;;1.88;62.70
9462;BME280;4769;42.660;23.262;2024-01-30T04:27:14;95867.19;;;1.80;62.93
9462;BME280;4769;42.660;23.262;2024-01-30T04:29:40;95861.81;;;1.81;62.38
9462;BME280;4769;42.660;23.262;2024-01-30T04:32:06;95861.41;;;1.86;62.54
9462;BME280;4769;42.660;23.262;2024-01-30T04:34:32;95871.72;;;1.95;62.56
9462;BME280;4769;42.660;23.262;2024-01-30T04:36:57;95863.38;;;1.74;62.64
9462;BME280;4769;42.660;23.262;2024-01-30T04:39:23;95864.09;;;1.94;62.93
9462;BME280;4769;42.660;23.262;2024-01-30T04:41:48;95858.06;;;1.93;62.73
9462;BME280;4769;42.660;23.262;2024-01-30T04:44:14;95871.97;;;2.02;62.86
9462;BME280;4769;42.660;23.262;2024-01-30T04:46:39;95872.06;;;2.10;62.92
9462;BME280;4769;42.660;23.262;2024-01-30T04:49:05;95872.03;;;2.19;62.11
9462;BME280;4769;42.660;23.262;2024-01-30T04:51:32;95880.63;;;2.20;61.96
9462;BME280;4769;42.660;23.262;2024-01-30T04:53:58;95884.34;;;2.17;62.34
9462;BME280;4769;42.660;23.262;2024-01-30T04:56:24;95889.19;;;2.12;62.81
9462;BME280;4769;42.660;23.262;2024-01-30T04:58:49;95886.94;;;2.17;62.67
9462;BME280;4769;42.660;23.262;2024-01-30T05:01:18;95889.19;;;2.12;62.56
9462;BME280;4769;42.660;23.262;2024-01-30T05:03:43;95889.19;;;2.12;62.31
9462;BME280;4769;42.660;23.262;2024-01-30T05:06:09;95893.28;;;2.15;62.87
9462;BME280;4769;42.660;23.262;2024-01-30T05:08:34;95892.16;;;2.17;62.03
9462;BME280;4769;42.660;23.262;2024-01-30T05:11:03;95889.94;;;2.22;61.56
9462;BME280;4769;42.660;23.262;2024-01-30T05:13:30;95892.44;;;2.14;61.86
9462;BME280;4769;42.660;23.262;2024-01-30T05:15:56;95899.25;;;1.98;62.37
9462;BME280;4769;42.660;23.262;2024-01-30T05:18:21;95898.38;;;1.53;62.39
9462;BME280;4769;42.660;23.262;2024-01-30T05:20:47;95908.69;;;1.26;64.74
9462;BME280;4769;42.660;23.262;2024-01-30T05:23:12;95902.59;;;1.44;64.17
9462;BME280;4769;42.660;23.262;2024-01-30T05:25:38;95907.53;;;1.47;64.54
9462;BME280;4769;42.660;23.262;2024-01-30T05:28:03;95919.03;;;1.54;64.98
9462;BME280;4769;42.660;23.262;2024-01-30T05:30:29;95904.63;;;1.60;64.66
9462;BME280;4769;42.660;23.262;2024-01-30T05:32:54;95904.22;;;1.64;64.69
9462;BME280;4769;42.660;23.262;2024-01-30T05:35:19;95902.13;;;1.68;65.16
9462;BME280;4769;42.660;23.262;2024-01-30T05:37:53;95897.31;;;1.73;64.80
9462;BME280;4769;42.660;23.262;2024-01-30T05:40:18;95904.16;;;1.74;64.93
9462;BME280;4769;42.660;23.262;2024-01-30T05:42:44;95902.41;;;1.65;64.40
9462;BME280;4769;42.660;23.262;2024-01-30T05:45:09;95906.66;;;1.66;64.44
9462;BME280;4769;42.660;23.262;2024-01-30T05:47:35;95905.50;;;1.41;64.77
9462;BME280;4769;42.660;23.262;2024-01-30T05:50:00;95903.03;;;1.49;65.34
9462;BME280;4769;42.660;23.262;2024-01-30T05:52:26;95905.38;;;1.43;65.43
9462;BME280;4769;42.660;23.262;2024-01-30T05:54:51;95902.97;;;1.59;64.93
9462;BME280;4769;42.660;23.262;2024-01-30T05:57:16;95903.75;;;1.69;64.33
9462;BME280;4769;42.660;23.262;2024-01-30T05:59:42;95903.50;;;1.62;64.69
9462;BME280;4769;42.660;23.262;2024-01-30T06:02:10;95895.25;;;1.49;64.63
9462;BME280;4769;42.660;23.262;2024-01-30T06:04:35;95894.28;;;1.41;64.25
9462;BME280;4769;42.660;23.262;2024-01-30T06:07:01;95898.09;;;1.46;64.17
9462;BME280;4769;42.660;23.262;2024-01-30T06:09:27;95902.53;;;1.36;64.60
9462;BME280;4769;42.660;23.262;2024-01-30T06:11:53;95894.22;;;1.14;64.24
9462;BME280;4769;42.660;23.262;2024-01-30T06:14:19;95895.19;;;1.13;64.13
9462;BME280;4769;42.660;23.262;2024-01-30T06:16:44;95900.44;;;1.40;63.93
9462;BME280;4769;42.660;23.262;2024-01-30T06:19:09;95900.88;;;1.35;63.81
9462;BME280;4769;42.660;23.262;2024-01-30T06:21:35;95897.66;;;1.51;63.32
9462;BME280;4769;42.660;23.262;2024-01-30T06:24:02;95895.50;;;1.46;63.53
9462;BME280;4769;42.660;23.262;2024-01-30T06:26:28;95900.66;;;1.56;63.43
9462;BME280;4769;42.660;23.262;2024-01-30T06:28:53;95909.16;;;1.58;62.98
9462;BME280;4769;42.660;23.262;2024-01-30T06:31:18;95906.16;;;1.53;63.33
9462;BME280;4769;42.660;23.262;2024-01-30T06:33:47;95909.53;;;1.63;63.39
9462;BME280;4769;42.660;23.262;2024-01-30T06:36:12;95908.97;;;1.69;63.43
9462;BME280;4769;42.660;23.262;2024-01-30T06:38:37;95911.81;;;1.75;63.05
9462;BME280;4769;42.660;23.262;2024-01-30T06:41:03;95909.19;;;1.85;62.98
9462;BME280;4769;42.660;23.262;2024-01-30T06:43:28;95913.75;;;2.00;62.75
9462;BME280;4769;42.660;23.262;2024-01-30T06:45:56;95916.34;;;2.00;62.47
9462;BME280;4769;42.660;23.262;2024-01-30T06:48:22;95910.28;;;2.09;62.33
9462;BME280;4769;42.660;23.262;2024-01-30T06:50:47;95911.94;;;2.10;61.78
9462;BME280;4769;42.660;23.262;2024-01-30T06:53:14;95909.03;;;2.13;62.29
9462;BME280;4769;42.660;23.262;2024-01-30T06:55:40;95922.59;;;2.17;62.50
9462;BME280;4769;42.660;23.262;2024-01-30T06:58:05;95910.63;;;2.24;61.69
9462;BME280;4769;42.660;23.262;2024-01-30T07:00:31;95908.47;;;2.37;62.00
9462;BME280;4769;42.660;23.262;2024-01-30T07:02:56;95913.91;;;2.43;61.66
9462;BME280;4769;42.660;23.262;2024-01-30T07:05:21;95909.22;;;2.47;60.51
9462;BME280;4769;42.660;23.262;2024-01-30T07:07:47;95914.38;;;2.56;60.91
9462;BME280;4769;42.660;23.262;2024-01-30T07:10:12;95908.94;;;2.50;59.92
9462;BME280;4769;42.660;23.262;2024-01-30T07:12:38;95914.59;;;2.63;59.33
9462;BME280;4769;42.660;23.262;2024-01-30T07:15:04;95913.72;;;2.89;58.40
9462;BME280;4769;42.660;23.262;2024-01-30T07:17:33;95917.44;;;2.87;57.58
9462;BME280;4769;42.660;23.262;2024-01-30T07:19:58;95919.03;;;2.53;57.43
9462;BME280;4769;42.660;23.262;2024-01-30T07:22:24;95919.50;;;2.31;57.91
9462;BME280;4769;42.660;23.262;2024-01-30T07:24:50;95920.16;;;2.33;57.05
9462;BME280;4769;42.660;23.262;2024-01-30T07:27:17;95920.41;;;2.57;55.88
9462;BME280;4769;42.660;23.262;2024-01-30T07:29:43;95924.34;;;2.61;56.41
9462;BME280;4769;42.660;23.262;2024-01-30T07:32:08;95923.09;;;2.65;55.62
9462;BME280;4769;42.660;23.262;2024-01-30T07:34:34;95926.72;;;2.72;56.52
9462;BME280;4769;42.660;23.262;2024-01-30T07:36:59;95913.31;;;3.02;55.27
9462;BME280;4769;42.660;23.262;2024-01-30T07:39:25;95912.47;;;3.19;54.38
9462;BME280;4769;42.660;23.262;2024-01-30T07:41:50;95922.94;;;3.27;53.23
9462;BME280;4769;42.660;23.262;2024-01-30T07:44:15;95914.72;;;3.39;52.41
9462;BME280;4769;42.660;23.262;2024-01-30T07:46:41;95921.19;;;3.53;52.17
9462;BME280;4769;42.660;23.262;2024-01-30T07:49:06;95919.50;;;3.69;51.71
9462;BME280;4769;42.660;23.262;2024-01-30T07:51:32;95910.63;;;3.54;51.92
9462;BME280;4769;42.660;23.262;2024-01-30T07:53:58;95912.66;;;3.43;51.82
9462;BME280;4769;42.660;23.262;2024-01-30T07:56:23;95912.03;;;3.49;52.56
9462;BME280;4769;42.660;23.262;2024-01-30T07:58:49;95917.44;;;3.81;51.15
9462;BME280;4769;42.660;23.262;2024-01-30T08:01:15;95912.25;;;3.89;50.75
9462;BME280;4769;42.660;23.262;2024-01-30T08:03:40;95909.84;;;3.62;51.41
9462;BME280;4769;42.660;23.262;2024-01-30T08:06:07;95904.69;;;3.78;51.48
9462;BME280;4769;42.660;23.262;2024-01-30T08:08:32;95904.16;;;4.00;50.95
9462;BME280;4769;42.660;23.262;2024-01-30T08:10:58;95905.53;;;4.20;50.17
9462;BME280;4769;42.660;23.262;2024-01-30T08:13:23;95904.28;;;4.32;49.64
9462;BME280;4769;42.660;23.262;2024-01-30T08:15:52;95898.19;;;4.15;49.29
9462;BME280;4769;42.660;23.262;2024-01-30T08:18:18;95903.75;;;4.28;49.26
9462;BME280;4769;42.660;23.262;2024-01-30T08:20:43;95904.94;;;3.92;49.99
9462;BME280;4769;42.660;23.262;2024-01-30T08:23:10;95902.91;;;4.20;49.87
9462;BME280;4769;42.660;23.262;2024-01-30T08:25:35;95902.00;;;4.37;49.31
9462;BME280;4769;42.660;23.262;2024-01-30T08:28:01;95912.66;;;4.10;49.09
9462;BME280;4769;42.660;23.262;2024-01-30T08:30:27;95903.00;;;4.36;48.87
9462;BME280;4769;42.660;23.262;2024-01-30T08:32:52;95903.84;;;4.52;47.99
9462;BME280;4769;42.660;23.262;2024-01-30T08:35:18;95908.72;;;4.47;47.84
9462;BME280;4769;42.660;23.262;2024-01-30T08:37:43;95914.97;;;4.13;48.71
9462;BME280;4769;42.660;23.262;2024-01-30T08:40:09;95915.53;;;3.91;49.10
9462;BME280;4769;42.660;23.262;2024-01-30T08:42:35;95909.16;;;4.27;48.89
9462;BME280;4769;42.660;23.262;2024-01-30T08:45:00;95911.38;;;4.71;48.45
9462;BME280;4769;42.660;23.262;2024-01-30T08:47:26;95904.53;;;5.02;46.94
9462;BME280;4769;42.660;23.262;2024-01-30T08:49:51;95914.50;;;4.91;47.60
9462;BME280;4769;42.660;23.262;2024-01-30T08:52:17;95915.81;;;5.03;46.57
9462;BME280;4769;42.660;23.262;2024-01-30T08:54:45;95913.84;;;5.05;46.35
9462;BME280;4769;42.660;23.262;2024-01-30T08:57:10;95909.97;;;5.25;45.56
9462;BME280;4769;42.660;23.262;2024-01-30T08:59:36;95914.66;;;5.53;45.00
9462;BME280;4769;42.660;23.262;2024-01-30T09:02:01;95914.13;;;5.74;45.31
9462;BME280;4769;42.660;23.262;2024-01-30T09:04:27;95921.78;;;5.91;44.19
9462;BME280;4769;42.660;23.262;2024-01-30T09:06:53;95926.53;;;5.96;44.08
9462;BME280;4769;42.660;23.262;2024-01-30T09:09:19;95924.59;;;6.36;42.94
9462;BME280;4769;42.660;23.262;2024-01-30T09:11:44;95913.91;;;6.46;42.83
9462;BME280;4769;42.660;23.262;2024-01-30T09:14:10;95906.63;;;6.25;42.47
9462;BME280;4769;42.660;23.262;2024-01-30T09:16:35;95916.84;;;6.04;43.16
9462;BME280;4769;42.660;23.262;2024-01-30T09:19:01;95907.25;;;6.35;43.68
9462;BME280;4769;42.660;23.262;2024-01-30T09:21:27;95904.69;;;4.69;46.80
9462;BME280;4769;42.660;23.262;2024-01-30T09:23:54;95908.63;;;4.15;50.06
9462;BME280;4769;42.660;23.262;2024-01-30T09:26:20;95914.44;;;4.09;51.20
9462;BME280;4769;42.660;23.262;2024-01-30T09:28:45;95902.00;;;4.37;51.42
9462;BME280;4769;42.660;23.262;2024-01-30T09:31:11;95912.13;;;4.48;51.90
9462;BME280;4769;42.660;23.262;2024-01-30T09:33:37;95899.47;;;4.85;51.00
9462;BME280;4769;42.660;23.262;2024-01-30T09:36:03;95896.44;;;4.40;52.00
9462;BME280;4769;42.660;23.262;2024-01-30T09:38:28;95905.84;;;4.66;52.25
9462;BME280;4769;42.660;23.262;2024-01-30T09:40:54;95897.84;;;4.84;50.89
9462;BME280;4769;42.660;23.262;2024-01-30T09:43:22;95899.16;;;5.20;50.56
9462;BME280;4769;42.660;23.262;2024-01-30T09:45:50;95895.84;;;5.58;48.91
9462;BME280;4769;42.660;23.262;2024-01-30T09:48:15;95895.69;;;5.59;47.78
9462;BME280;4769;42.660;23.262;2024-01-30T09:50:41;95895.69;;;4.63;49.50
9462;BME280;4769;42.660;23.262;2024-01-30T09:53:08;95889.47;;;4.56;50.43
9462;BME280;4769;42.660;23.262;2024-01-30T09:55:35;95902.13;;;4.19;50.82
9462;BME280;4769;42.660;23.262;2024-01-30T09:58:01;95895.09;;;4.20;52.05
9462;BME280;4769;42.660;23.262;2024-01-30T10:00:26;95900.06;;;3.97;52.56
9462;BME280;4769;42.660;23.262;2024-01-30T10:02:53;95893.19;;;3.88;52.80
9462;BME280;4769;42.660;23.262;2024-01-30T10:05:19;95894.19;;;3.62;53.76
9462;BME280;4769;42.660;23.262;2024-01-30T10:07:55;95901.53;;;3.66;53.82
9462;BME280;4769;42.660;23.262;2024-01-30T10:10:25;95897.94;;;4.01;52.67
9462;BME280;4769;42.660;23.262;2024-01-30T10:12:51;95884.97;;;4.25;52.58
9462;BME280;4769;42.660;23.262;2024-01-30T10:15:17;95881.84;;;4.05;52.65
9462;BME280;4769;42.660;23.262;2024-01-30T10:17:49;95881.88;;;4.21;52.23
9462;BME280;4769;42.660;23.262;2024-01-30T10:20:14;95880.47;;;4.43;51.93
9462;BME280;4769;42.660;23.262;2024-01-30T10:22:44;95885.38;;;4.46;51.74
9462;BME280;4769;42.660;23.262;2024-01-30T10:25:11;95881.66;;;4.72;51.37
9462;BME280;4769;42.660;23.262;2024-01-30T10:27:36;95872.34;;;5.26;50.06
9462;BME280;4769;42.660;23.262;2024-01-30T10:30:01;95880.47;;;5.63;48.74
9462;BME280;4769;42.660;23.262;2024-01-30T10:32:29;95880.94;;;5.66;48.10
9462;BME280;4769;42.660;23.262;2024-01-30T10:34:54;95877.69;;;5.56;47.58
9462;BME280;4769;42.660;23.262;2024-01-30T10:37:21;95883.16;;;4.83;49.73
9462;BME280;4769;42.660;23.262;2024-01-30T10:39:50;95883.47;;;4.80;50.24
9462;BME280;4769;42.660;23.262;2024-01-30T10:42:18;95878.25;;;4.88;49.86
9462;BME280;4769;42.660;23.262;2024-01-30T10:45:00;95876.41;;;4.56;50.40
9462;BME280;4769;42.660;23.262;2024-01-30T10:47:29;95876.91;;;5.24;49.66
9462;BME280;4769;42.660;23.262;2024-01-30T10:49:56;95867.66;;;5.84;48.20
9462;BME280;4769;42.660;23.262;2024-01-30T10:52:23;95863.41;;;5.83;46.65
9462;BME280;4769;42.660;23.262;2024-01-30T10:54:51;95871.16;;;5.60;47.93
9462;BME280;4769;42.660;23.262;2024-01-30T10:57:18;95859.38;;;5.48;47.18
9462;BME280;4769;42.660;23.262;2024-01-30T10:59:43;95856.41;;;5.67;46.95
9462;BME280;4769;42.660;23.262;2024-01-30T11:02:11;95848.81;;;5.96;46.67
9462;BME280;4769;42.660;23.262;2024-01-30T11:04:43;95857.34;;;5.90;46.20
9462;BME280;4769;42.660;23.262;2024-01-30T11:07:18;95848.06;;;5.64;46.50
9462;BME280;4769;42.660;23.262;2024-01-30T11:10:00;95842.75;;;5.96;46.35
9462;BME280;4769;42.660;23.262;2024-01-30T11:12:27;95832.09;;;6.36;45.44
9462;BME280;4769;42.660;23.262;2024-01-30T11:15:06;95831.53;;;6.71;44.46
9462;BME280;4769;42.660;23.262;2024-01-30T11:20:29;95834.81;;;6.42;45.04
9462;BME280;4769;42.660;23.262;2024-01-30T11:23:01;95834.72;;;6.36;45.13
9462;BME280;4769;42.660;23.262;2024-01-30T11:25:32;95833.31;;;6.48;44.98
9462;BME280;4769;42.660;23.262;2024-01-30T11:27:58;95834.25;;;6.55;44.68
9462;BME280;4769;42.660;23.262;2024-01-30T11:30:29;95838.09;;;6.14;45.55
9462;BME280;4769;42.660;23.262;2024-01-30T11:33:05;95831.91;;;6.07;45.64
9462;BME280;4769;42.660;23.262;2024-01-30T11:35:35;95838.25;;;6.12;46.08
9462;BME280;4769;42.660;23.262;2024-01-30T11:38:02;95829.28;;;6.37;45.61
9462;BME280;4769;42.660;23.262;2024-01-30T11:40:29;95840.09;;;6.65;44.92
9462;BME280;4769;42.660;23.262;2024-01-30T11:42:55;95839.13;;;7.54;42.58
9462;BME280;4769;42.660;23.262;2024-01-30T11:45:21;95843.81;;;7.30;42.19
9462;BME280;4769;42.660;23.262;2024-01-30T11:47:46;95830.59;;;7.23;42.99
9462;BME280;4769;42.660;23.262;2024-01-30T11:50:12;95833.22;;;7.38;42.72
9462;BME280;4769;42.660;23.262;2024-01-30T11:52:39;95837.47;;;6.87;43.37
9462;BME280;4769;42.660;23.262;2024-01-30T11:55:05;95832.56;;;6.09;45.31
9462;BME280;4769;42.660;23.262;2024-01-30T11:57:30;95835.09;;;5.86;46.73
9462;BME280;4769;42.660;23.262;2024-01-30T11:59:57;95824.75;;;5.93;46.19
9462;BME280;4769;42.660;23.262;2024-01-30T12:02:23;95819.22;;;6.49;44.78
9462;BME280;4769;42.660;23.262;2024-01-30T12:04:49;95807.63;;;6.88;43.42
9462;BME280;4769;42.660;23.262;2024-01-30T12:07:14;95811.78;;;7.34;43.13
9462;BME280;4769;42.660;23.262;2024-01-30T12:09:42;95792.50;;;8.71;40.75
9462;BME280;4769;42.660;23.262;2024-01-30T12:12:07;95785.84;;;9.51;38.31
9462;BME280;4769;42.660;23.262;2024-01-30T12:14:42;95790.56;;;9.96;36.76
9462;BME280;4769;42.660;23.262;2024-01-30T12:17:08;95784.28;;;9.01;38.06
9462;BME280;4769;42.660;23.262;2024-01-30T12:19:35;95775.84;;;9.12;37.50
9462;BME280;4769;42.660;23.262;2024-01-30T12:22:03;95775.31;;;8.96;38.73
9462;BME280;4769;42.660;23.262;2024-01-30T12:24:29;95774.66;;;9.76;37.46
9462;BME280;4769;42.660;23.262;2024-01-30T12:26:58;95773.41;;;10.66;35.92
9462;BME280;4769;42.660;23.262;2024-01-30T12:29:24;95764.91;;;10.84;34.69
9462;BME280;4769;42.660;23.262;2024-01-30T12:31:53;95764.09;;;11.09;34.70
9462;BME280;4769;42.660;23.262;2024-01-30T12:34:19;95762.25;;;11.55;33.47
9462;BME280;4769;42.660;23.262;2024-01-30T12:36:47;95764.69;;;11.05;34.09
9462;BME280;4769;42.660;23.262;2024-01-30T12:39:14;95758.78;;;11.55;33.66
9462;BME280;4769;42.660;23.262;2024-01-30T12:41:40;95757.19;;;11.60;33.31
9462;BME280;4769;42.660;23.262;2024-01-30T12:44:06;95752.34;;;12.52;32.14
9462;BME280;4769;42.660;23.262;2024-01-30T12:46:34;95748.69;;;12.84;31.04
9462;BME280;4769;42.660;23.262;2024-01-30T12:48:59;95747.53;;;12.36;31.61
9462;BME280;4769;42.660;23.262;2024-01-30T12:51:25;95751.31;;;12.84;30.78
9462;BME280;4769;42.660;23.262;2024-01-30T12:53:50;95739.75;;;13.09;30.82
9462;BME280;4769;42.660;23.262;2024-01-30T12:56:16;95731.63;;;13.71;30.08
9462;BME280;4769;42.660;23.262;2024-01-30T12:58:41;95736.03;;;13.77;30.04
9462;BME280;4769;42.660;23.262;2024-01-30T13:01:08;95727.28;;;13.77;29.26
9462;BME280;4769;42.660;23.262;2024-01-30T13:03:33;95725.00;;;13.62;29.23
9462;BME280;4769;42.660;23.262;2024-01-30T13:05:59;95724.84;;;13.75;28.88
9462;BME280;4769;42.660;23.262;2024-01-30T13:08:25;95723.31;;;12.39;30.69
9462;BME280;4769;42.660;23.262;2024-01-30T13:10:50;95720.13;;;12.24;31.22
9462;BME280;4769;42.660;23.262;2024-01-30T13:13:16;95721.38;;;13.14;30.22
9462;BME280;4769;42.660;23.262;2024-01-30T13:15:42;95720.59;;;12.83;30.03
9462;BME280;4769;42.660;23.262;2024-01-30T13:18:07;95720.47;;;12.71;30.45
9462;BME280;4769;42.660;23.262;2024-01-30T13:20:33;95718.28;;;12.93;30.23